Time;durP1;ratioP1;P1;durP2;ratioP2;P2;SDS_P1;SDS_P2;PMS_P1;PMS_P2;Temp;Humidity;BMP_temperature;BMP_pressure;BME280_temperature;BME280_humidity;BME280_pressure;Samples;Min_cycle;Max_cycle;Signal;HPM_P1;HPM_P2
2022/10/12 00:00:51;;;;;;;21.77;6.80;;;;;;;;;;5043904;28;20060;-79
2022/10/12 00:03:17;;;;;;;14.70;6.03;;;;;;;;;;5042016;28;20057;-78
2022/10/12 00:05:44;;;;;;;15.52;6.28;;;;;;;;;;5034963;28;20052;-79
2022/10/12 00:08:11;;;;;;;19.42;6.78;;;;;;;;;;5021599;28;20117;-78
2022/10/12 00:10:41;;;;;;;18.85;6.45;;;;;;;;;;5013657;28;20518;-79
2022/10/12 00:13:07;;;;;;;20.80;7.32;;;;;;;;;;4997273;28;20049;-78
2022/10/12 00:15:38;;;;;;;27.83;7.00;;;;;;;;;;5015056;28;20045;-77
2022/10/12 00:18:04;;;;;;;12.85;6.72;;;;;;;;;;5000991;28;20581;-79
2022/10/12 00:20:31;;;;;;;24.40;6.70;;;;;;;;;;5017581;28;20144;-78
2022/10/12 00:22:57;;;;;;;19.92;7.07;;;;;;;;;;5017459;28;20080;-78
2022/10/12 00:25:24;;;;;;;14.20;6.43;;;;;;;;;;5026447;28;20040;-77
2022/10/12 00:27:50;;;;;;;18.10;7.05;;;;;;;;;;5036489;28;20110;-77
2022/10/12 00:30:17;;;;;;;16.15;6.93;;;;;;;;;;5036203;28;20045;-78
2022/10/12 00:32:43;;;;;;;18.25;7.20;;;;;;;;;;5029714;28;20125;-79
2022/10/12 00:35:10;;;;;;;22.38;7.80;;;;;;;;;;5014300;28;20049;-78
2022/10/12 00:37:36;;;;;;;21.17;6.65;;;;;;;;;;5014781;28;20049;-80
2022/10/12 00:40:03;;;;;;;14.95;6.13;;;;;;;;;;4997045;28;20054;-78
2022/10/12 00:42:29;;;;;;;13.18;5.88;;;;;;;;;;5013538;28;20525;-79
2022/10/12 00:44:56;;;;;;;15.07;6.13;;;;;;;;;;5012805;28;20148;-79
2022/10/12 00:47:31;;;;;;;24.00;6.03;;;;;;;;;;5012957;28;20053;-79
2022/10/12 00:50:17;;;;;;;19.20;6.88;;;;;;;;;;5012777;28;20052;-80
2022/10/12 00:52:46;;;;;;;20.48;6.20;;;;;;;;;;4996036;28;20053;-80
2022/10/12 00:55:14;;;;;;;16.98;6.38;;;;;;;;;;5013192;28;20125;-79
2022/10/12 00:57:40;;;;;;;13.80;5.72;;;;;;;;;;5010770;28;20548;-79
2022/10/12 01:00:12;;;;;;;15.68;5.90;;;;;;;;;;5031065;28;20056;-81
2022/10/12 01:02:40;;;;;;;18.83;6.47;;;;;;;;;;5032207;28;20062;-80
2022/10/12 01:05:06;;;;;;;15.85;6.35;;;;;;;;;;5028704;28;20049;-81
2022/10/12 01:07:33;;;;;;;13.93;6.50;;;;;;;;;;5029435;28;20054;-80
2022/10/12 01:09:59;;;;;;;15.55;6.45;;;;;;;;;;5030159;28;20053;-80
2022/10/12 01:12:26;;;;;;;19.00;6.57;;;;;;;;;;5043353;28;20053;-79
2022/10/12 01:14:53;;;;;;;17.95;6.40;;;;;;;;;;5040056;28;20548;-81
2022/10/12 01:17:25;;;;;;;14.02;6.22;;;;;;;;;;5029925;28;20064;-80
2022/10/12 01:20:07;;;;;;;21.05;7.55;;;;;;;;;;5030787;28;20057;-80
2022/10/12 01:22:38;;;;;;;21.15;6.38;;;;;;;;;;5034361;28;20055;-80
2022/10/12 01:25:29;;;;;;;20.42;6.55;;;;;;;;;;5035674;28;20059;-80
2022/10/12 01:28:01;;;;;;;17.48;6.75;;;;;;;;;;5034636;28;20069;-81
2022/10/12 01:30:32;;;;;;;17.98;6.65;;;;;;;;;;5017430;28;20053;-80
2022/10/12 01:33:01;;;;;;;19.77;7.07;;;;;;;;;;5035827;28;20144;-80
2022/10/12 01:35:33;;;;;;;16.85;7.22;;;;;;;;;;5035313;28;20060;-80
2022/10/12 01:38:05;;;;;;;17.65;6.32;;;;;;;;;;5035397;28;20063;-81
2022/10/12 01:40:34;;;;;;;22.15;7.03;;;;;;;;;;5035515;28;20430;-80
2022/10/12 01:43:01;;;;;;;18.70;6.35;;;;;;;;;;5038241;28;20049;-80
2022/10/12 01:45:27;;;;;;;18.85;6.57;;;;;;;;;;5040511;28;20071;-80
2022/10/12 01:47:54;;;;;;;14.82;6.57;;;;;;;;;;5031658;28;20049;-80
2022/10/12 01:50:21;;;;;;;15.68;6.43;;;;;;;;;;5033913;28;20046;-77
2022/10/12 01:52:57;;;;;;;17.10;6.68;;;;;;;;;;5030872;28;20053;-79
2022/10/12 01:55:38;;;;;;;16.23;6.05;;;;;;;;;;5013279;28;20053;-80
2022/10/12 01:58:17;;;;;;;13.10;5.80;;;;;;;;;;5030881;28;20053;-81
2022/10/12 02:01:02;;;;;;;16.23;5.68;;;;;;;;;;5020661;28;20046;-79
2022/10/12 02:03:35;;;;;;;17.60;5.93;;;;;;;;;;5010864;28;20057;-80
2022/10/12 02:06:05;;;;;;;17.33;5.88;;;;;;;;;;5011422;28;20062;-80
2022/10/12 02:08:46;;;;;;;18.42;6.20;;;;;;;;;;5010663;28;20065;-80
2022/10/12 02:11:13;;;;;;;18.23;6.38;;;;;;;;;;4993141;28;20050;-77
2022/10/12 02:13:42;;;;;;;11.82;5.35;;;;;;;;;;4992565;28;20468;-79
2022/10/12 02:16:11;;;;;;;13.38;6.22;;;;;;;;;;4993186;28;20064;-79
2022/10/12 02:18:40;;;;;;;18.55;6.13;;;;;;;;;;4994509;28;20050;-79
2022/10/12 02:21:08;;;;;;;15.93;5.80;;;;;;;;;;5012063;28;20054;-79
2022/10/12 02:23:35;;;;;;;13.43;5.85;;;;;;;;;;5011918;28;20465;-79
2022/10/12 02:26:01;;;;;;;11.20;5.47;;;;;;;;;;5010638;28;20046;-79
2022/10/12 02:28:29;;;;;;;16.27;5.80;;;;;;;;;;5016929;28;20264;-79
2022/10/12 02:31:02;;;;;;;12.85;6.18;;;;;;;;;;5032984;28;20663;-80
2022/10/12 02:33:31;;;;;;;13.18;5.68;;;;;;;;;;5031426;28;20057;-80
2022/10/12 02:35:59;;;;;;;16.17;6.05;;;;;;;;;;5033031;28;20147;-80
2022/10/12 02:38:31;;;;;;;14.32;6.40;;;;;;;;;;5031919;28;20699;-79
2022/10/12 02:41:04;;;;;;;11.68;5.93;;;;;;;;;;5013107;28;20116;-79
2022/10/12 02:43:56;;;;;;;16.60;5.70;;;;;;;;;;5030111;28;20096;-80
2022/10/12 02:46:24;;;;;;;11.35;5.57;;;;;;;;;;5026782;28;20054;-81
2022/10/12 02:48:52;;;;;;;10.68;5.32;;;;;;;;;;5029807;28;20641;-81
2022/10/12 02:51:18;;;;;;;13.45;5.65;;;;;;;;;;5030954;28;20052;-80
2022/10/12 02:53:45;;;;;;;15.85;5.88;;;;;;;;;;5032622;28;20708;-81
2022/10/12 02:56:13;;;;;;;13.85;5.78;;;;;;;;;;5036768;28;20061;-80
2022/10/12 02:58:41;;;;;;;13.65;5.93;;;;;;;;;;5045174;28;20132;-79
2022/10/12 03:01:08;;;;;;;16.23;5.95;;;;;;;;;;5030949;28;20049;-78
2022/10/12 03:03:34;;;;;;;10.02;5.60;;;;;;;;;;5031308;28;20046;-80
2022/10/12 03:06:00;;;;;;;13.07;6.03;;;;;;;;;;5030323;28;20060;-78
2022/10/12 03:08:27;;;;;;;18.92;6.38;;;;;;;;;;5030920;28;20061;-79
2022/10/12 03:10:53;;;;;;;12.60;5.53;;;;;;;;;;5031686;28;20053;-78
2022/10/12 03:13:19;;;;;;;9.75;5.60;;;;;;;;;;5031802;28;20053;-80
2022/10/12 03:15:46;;;;;;;15.32;5.20;;;;;;;;;;5032525;28;20478;-79
2022/10/12 03:18:12;;;;;;;14.18;5.45;;;;;;;;;;5031990;28;20520;-78
2022/10/12 03:20:39;;;;;;;14.13;5.68;;;;;;;;;;5032171;28;20064;-77
2022/10/12 03:23:05;;;;;;;18.10;5.47;;;;;;;;;;5032805;28;20049;-78
2022/10/12 03:25:32;;;;;;;16.98;4.72;;;;;;;;;;5032203;28;20072;-78
2022/10/12 03:27:58;;;;;;;12.68;5.00;;;;;;;;;;5029731;28;20041;-81
2022/10/12 03:30:25;;;;;;;15.68;5.28;;;;;;;;;;5032948;28;20048;-79
2022/10/12 03:32:51;;;;;;;13.38;5.47;;;;;;;;;;5034812;28;20045;-78
2022/10/12 03:35:18;;;;;;;14.57;5.10;;;;;;;;;;5032197;28;20072;-78
2022/10/12 03:37:44;;;;;;;11.85;5.07;;;;;;;;;;5020432;28;20101;-80
2022/10/12 03:40:11;;;;;;;14.88;5.20;;;;;;;;;;4995618;28;20065;-78
2022/10/12 03:42:37;;;;;;;12.55;4.82;;;;;;;;;;5013168;28;20137;-80
2022/10/12 03:45:04;;;;;;;13.07;4.97;;;;;;;;;;5016441;28;20068;-80
2022/10/12 03:47:30;;;;;;;14.80;5.45;;;;;;;;;;5030274;28;20055;-81
2022/10/12 03:49:56;;;;;;;8.32;4.95;;;;;;;;;;5033356;28;20137;-78
2022/10/12 03:52:23;;;;;;;12.65;5.80;;;;;;;;;;5033948;28;20065;-78
2022/10/12 03:54:49;;;;;;;18.40;5.28;;;;;;;;;;5051372;28;20120;-80
2022/10/12 03:57:16;;;;;;;12.82;5.40;;;;;;;;;;5056937;28;20057;-79
2022/10/12 03:59:42;;;;;;;13.55;5.10;;;;;;;;;;5049447;28;20067;-79
2022/10/12 04:02:09;;;;;;;11.02;4.93;;;;;;;;;;5034989;28;20042;-80
2022/10/12 04:04:43;;;;;;;18.15;5.28;;;;;;;;;;5034010;28;20117;-80
2022/10/12 04:07:09;;;;;;;15.07;5.25;;;;;;;;;;5033658;28;20096;-78
2022/10/12 04:09:36;;;;;;;14.25;5.78;;;;;;;;;;5034819;28;20056;-80
2022/10/12 04:12:02;;;;;;;13.43;5.88;;;;;;;;;;5038636;28;20417;-80
2022/10/12 04:14:29;;;;;;;12.32;4.95;;;;;;;;;;5032792;28;20137;-79
2022/10/12 04:16:55;;;;;;;17.65;5.47;;;;;;;;;;5032822;28;20088;-80
2022/10/12 04:19:21;;;;;;;12.40;5.32;;;;;;;;;;5033922;28;20072;-80
2022/10/12 04:21:48;;;;;;;12.90;5.85;;;;;;;;;;5033367;28;20397;-79
2022/10/12 04:24:14;;;;;;;12.38;5.25;;;;;;;;;;5033053;28;20045;-80
2022/10/12 04:26:41;;;;;;;14.60;5.15;;;;;;;;;;5033095;28;20076;-80
2022/10/12 04:29:07;;;;;;;14.90;5.25;;;;;;;;;;5032081;28;20132;-79
2022/10/12 04:31:33;;;;;;;12.35;4.95;;;;;;;;;;5032951;28;20549;-79
2022/10/12 04:34:00;;;;;;;10.63;4.85;;;;;;;;;;5033351;28;20050;-78
2022/10/12 04:36:26;;;;;;;13.13;5.32;;;;;;;;;;5032759;28;20060;-80
2022/10/12 04:38:53;;;;;;;15.68;5.10;;;;;;;;;;5032433;28;20049;-79
2022/10/12 04:41:26;;;;;;;19.27;5.40;;;;;;;;;;5033040;28;20424;-79
2022/10/12 04:43:53;;;;;;;17.63;5.82;;;;;;;;;;5032341;28;20504;-80
2022/10/12 04:46:20;;;;;;;13.52;5.22;;;;;;;;;;5016507;28;20422;-80
2022/10/12 04:48:46;;;;;;;14.18;5.07;;;;;;;;;;5032520;28;20045;-80
2022/10/12 04:51:13;;;;;;;19.98;6.20;;;;;;;;;;5032688;28;20042;-79
2022/10/12 04:53:39;;;;;;;11.50;5.30;;;;;;;;;;5032646;28;20049;-79
2022/10/12 04:56:06;;;;;;;15.52;5.57;;;;;;;;;;5031855;28;20080;-79
2022/10/12 04:58:32;;;;;;;14.68;5.55;;;;;;;;;;5031479;28;20061;-80
2022/10/12 05:00:58;;;;;;;17.23;5.85;;;;;;;;;;5032762;28;20124;-80
2022/10/12 05:03:25;;;;;;;14.75;5.38;;;;;;;;;;5044663;28;20049;-79
2022/10/12 05:05:51;;;;;;;12.23;4.90;;;;;;;;;;5035528;28;20045;-80
2022/10/12 05:08:17;;;;;;;13.55;5.22;;;;;;;;;;5032499;28;20486;-79
2022/10/12 05:10:45;;;;;;;18.33;6.15;;;;;;;;;;5036429;28;20049;-80
2022/10/12 05:13:12;;;;;;;18.42;5.60;;;;;;;;;;5031933;28;20084;-81
2022/10/12 05:15:40;;;;;;;15.45;5.40;;;;;;;;;;5031999;28;20052;-79
2022/10/12 05:18:07;;;;;;;12.27;5.43;;;;;;;;;;5032266;28;20053;-78
2022/10/12 05:20:34;;;;;;;20.42;5.45;;;;;;;;;;5032424;28;20049;-80
2022/10/12 05:23:00;;;;;;;17.52;5.80;;;;;;;;;;5032152;28;20057;-79
2022/10/12 05:25:28;;;;;;;15.02;5.88;;;;;;;;;;5038885;28;20068;-80
2022/10/12 05:27:55;;;;;;;16.02;5.70;;;;;;;;;;5045581;28;20041;-79
2022/10/12 05:30:22;;;;;;;15.07;5.25;;;;;;;;;;5035456;28;20050;-82
2022/10/12 05:32:48;;;;;;;22.95;6.15;;;;;;;;;;5012253;28;20049;-77
2022/10/12 05:35:15;;;;;;;19.02;5.78;;;;;;;;;;5030183;28;20075;-79
2022/10/12 05:37:41;;;;;;;12.10;5.45;;;;;;;;;;5030934;28;20284;-79
2022/10/12 05:40:07;;;;;;;20.85;5.47;;;;;;;;;;5030451;28;20057;-80
2022/10/12 05:42:34;;;;;;;15.07;5.50;;;;;;;;;;5030559;28;20498;-79
2022/10/12 05:45:01;;;;;;;20.73;5.75;;;;;;;;;;5030456;28;20516;-80
2022/10/12 05:47:27;;;;;;;16.80;5.40;;;;;;;;;;5030996;28;20060;-80
2022/10/12 05:49:54;;;;;;;20.05;6.05;;;;;;;;;;5030629;28;20050;-80
2022/10/12 05:52:20;;;;;;;15.95;6.40;;;;;;;;;;5014381;28;20045;-80
2022/10/12 05:54:47;;;;;;;14.30;5.38;;;;;;;;;;5030952;28;20059;-80
2022/10/12 05:57:14;;;;;;;17.65;5.43;;;;;;;;;;5012285;28;20048;-79
2022/10/12 05:59:41;;;;;;;18.75;6.40;;;;;;;;;;5024543;28;20055;-79
2022/10/12 06:02:11;;;;;;;21.20;6.05;;;;;;;;;;5031656;28;20068;-79
2022/10/12 06:04:38;;;;;;;15.48;6.18;;;;;;;;;;5031354;28;20133;-80
2022/10/12 06:07:04;;;;;;;19.40;5.85;;;;;;;;;;5030358;28;20045;-79
2022/10/12 06:09:30;;;;;;;17.98;5.38;;;;;;;;;;5031841;28;20050;-79
2022/10/12 06:11:57;;;;;;;16.10;5.10;;;;;;;;;;5032484;28;20053;-79
2022/10/12 06:14:24;;;;;;;17.05;4.60;;;;;;;;;;5031402;28;20076;-80
2022/10/12 06:16:50;;;;;;;17.88;5.22;;;;;;;;;;5031218;28;20464;-80
2022/10/12 06:19:19;;;;;;;14.07;5.03;;;;;;;;;;5030617;28;20046;-78
2022/10/12 06:21:46;;;;;;;15.10;4.75;;;;;;;;;;5030042;28;20056;-78
2022/10/12 06:24:12;;;;;;;17.55;4.60;;;;;;;;;;5029706;28;20049;-80
2022/10/12 06:26:39;;;;;;;15.18;5.25;;;;;;;;;;5030115;28;20045;-79
2022/10/12 06:29:05;;;;;;;16.52;5.13;;;;;;;;;;5033148;28;20042;-80
2022/10/12 06:31:32;;;;;;;17.05;4.72;;;;;;;;;;5031679;28;20192;-79
2022/10/12 06:33:59;;;;;;;19.25;5.07;;;;;;;;;;5033412;28;20073;-80
2022/10/12 06:36:25;;;;;;;14.75;4.10;;;;;;;;;;5032596;28;20068;-80
2022/10/12 06:38:52;;;;;;;14.52;4.13;;;;;;;;;;5030973;28;20424;-80
2022/10/12 06:41:18;;;;;;;17.35;3.30;;;;;;;;;;5030915;28;20053;-79
2022/10/12 06:43:44;;;;;;;18.52;3.80;;;;;;;;;;5031108;28;20506;-80
2022/10/12 06:46:11;;;;;;;11.70;4.13;;;;;;;;;;5015173;28;20120;-79
2022/10/12 06:48:37;;;;;;;14.15;3.95;;;;;;;;;;5029970;28;20060;-80
2022/10/12 06:51:04;;;;;;;17.85;3.92;;;;;;;;;;5029267;28;20486;-79
2022/10/12 06:53:31;;;;;;;15.15;3.90;;;;;;;;;;5030693;28;20049;-78
2022/10/12 06:55:58;;;;;;;16.90;4.00;;;;;;;;;;5034422;28;20061;-81
2022/10/12 06:58:24;;;;;;;16.75;3.35;;;;;;;;;;5039009;28;20045;-79
2022/10/12 07:00:51;;;;;;;21.92;3.90;;;;;;;;;;5034896;28;20057;-80
2022/10/12 07:03:18;;;;;;;12.65;3.35;;;;;;;;;;5036671;28;20141;-81
2022/10/12 07:05:44;;;;;;;14.45;3.30;;;;;;;;;;5034073;28;20049;-79
2022/10/12 07:08:10;;;;;;;17.58;4.05;;;;;;;;;;5017251;28;20052;-79
2022/10/12 07:10:37;;;;;;;15.05;3.60;;;;;;;;;;5035161;28;20417;-80
2022/10/12 07:13:03;;;;;;;14.13;3.53;;;;;;;;;;5036960;28;20475;-81
2022/10/12 07:15:29;;;;;;;14.82;3.75;;;;;;;;;;5035395;28;20049;-81
2022/10/12 07:17:56;;;;;;;11.48;3.60;;;;;;;;;;5017408;28;20072;-80
2022/10/12 07:20:22;;;;;;;19.80;3.85;;;;;;;;;;5035871;28;20053;-81
2022/10/12 07:22:49;;;;;;;15.00;4.28;;;;;;;;;;5049455;28;20034;-81
2022/10/12 07:25:15;;;;;;;14.27;3.53;;;;;;;;;;5056872;28;20044;-81
2022/10/12 07:27:41;;;;;;;15.52;2.85;;;;;;;;;;5050388;28;20105;-79
2022/10/12 07:30:09;;;;;;;18.83;2.90;;;;;;;;;;5033275;28;20049;-80
2022/10/12 07:32:35;;;;;;;11.98;2.78;;;;;;;;;;5033114;28;20061;-81
2022/10/12 07:35:02;;;;;;;26.27;3.42;;;;;;;;;;5033289;28;20045;-80
2022/10/12 07:37:28;;;;;;;14.57;3.03;;;;;;;;;;5034155;28;20061;-80
2022/10/12 07:39:56;;;;;;;15.70;3.00;;;;;;;;;;5032852;28;20556;-80
2022/10/12 07:42:23;;;;;;;11.88;2.88;;;;;;;;;;5016009;28;20053;-81
2022/10/12 07:44:49;;;;;;;9.30;2.58;;;;;;;;;;5033102;28;20055;-80
2022/10/12 07:47:16;;;;;;;17.40;3.30;;;;;;;;;;5015428;28;20535;-82
2022/10/12 07:49:43;;;;;;;10.52;3.05;;;;;;;;;;5032913;28;20152;-81
2022/10/12 07:52:09;;;;;;;18.35;3.50;;;;;;;;;;5032415;28;20413;-81
2022/10/12 07:54:35;;;;;;;8.32;2.40;;;;;;;;;;5017863;28;20057;-80
2022/10/12 07:57:02;;;;;;;10.38;2.05;;;;;;;;;;5049147;28;20072;-80
2022/10/12 07:59:28;;;;;;;11.63;2.45;;;;;;;;;;5044342;28;20568;-80
2022/10/12 08:01:54;;;;;;;13.30;2.50;;;;;;;;;;5033849;28;20053;-80
2022/10/12 08:04:21;;;;;;;11.48;2.30;;;;;;;;;;5032073;28;20145;-80
2022/10/12 08:06:47;;;;;;;9.70;2.17;;;;;;;;;;5031546;28;20053;-80
2022/10/12 08:09:14;;;;;;;16.17;2.95;;;;;;;;;;5032400;28;20099;-81
2022/10/12 08:11:40;;;;;;;16.73;2.95;;;;;;;;;;5032068;28;20057;-80
2022/10/12 08:14:14;;;;;;;15.48;4.38;;;;;;;;;;5032354;28;20052;-82
2022/10/12 08:16:44;;;;;;;18.02;3.30;;;;;;;;;;5031050;28;20051;-80
2022/10/12 08:19:10;;;;;;;20.15;4.22;;;;;;;;;;5029876;28;20060;-79
2022/10/12 08:21:37;;;;;;;17.02;2.80;;;;;;;;;;5031323;28;20419;-79
2022/10/12 08:24:03;;;;;;;11.10;2.92;;;;;;;;;;5031815;28;20412;-79
2022/10/12 08:26:30;;;;;;;11.52;3.03;;;;;;;;;;5030655;28;20157;-80
2022/10/12 08:28:56;;;;;;;16.00;2.38;;;;;;;;;;5031615;28;20057;-79
2022/10/12 08:31:23;;;;;;;12.48;2.50;;;;;;;;;;5014086;28;20128;-79
2022/10/12 08:33:49;;;;;;;18.80;3.30;;;;;;;;;;5032756;28;20057;-80
2022/10/12 08:36:15;;;;;;;18.92;2.75;;;;;;;;;;5031904;28;20057;-79
2022/10/12 08:38:42;;;;;;;13.30;3.00;;;;;;;;;;5031618;28;20050;-81
2022/10/12 08:41:11;;;;;;;12.25;2.63;;;;;;;;;;5031784;28;20103;-80
2022/10/12 08:43:57;;;;;;;14.30;2.72;;;;;;;;;;5032174;28;20053;-80
2022/10/12 08:46:24;;;;;;;15.93;2.77;;;;;;;;;;5031525;28;20056;-80
2022/10/12 08:48:56;;;;;;;12.73;2.67;;;;;;;;;;5031235;28;20489;-79
2022/10/12 08:51:25;;;;;;;16.10;3.15;;;;;;;;;;5032352;28;20478;-80
2022/10/12 08:53:51;;;;;;;12.18;2.33;;;;;;;;;;5031980;28;20055;-81
2022/10/12 08:56:18;;;;;;;11.70;2.20;;;;;;;;;;5031606;28;20292;-80
2022/10/12 08:58:46;;;;;;;10.88;2.50;;;;;;;;;;5014995;28;20053;-80
2022/10/12 09:01:18;;;;;;;11.48;2.30;;;;;;;;;;5021823;28;20077;-81
2022/10/12 09:04:13;;;;;;;9.32;2.22;;;;;;;;;;5030680;28;20053;-79
2022/10/12 09:06:54;;;;;;;16.50;2.83;;;;;;;;;;5031058;28;20502;-79
2022/10/12 09:09:35;;;;;;;7.07;2.20;;;;;;;;;;5032132;28;20060;-80
2022/10/12 09:12:09;;;;;;;9.38;2.50;;;;;;;;;;5032159;28;20045;-80
2022/10/12 09:14:36;;;;;;;11.02;2.70;;;;;;;;;;5030852;28;20663;-79
2022/10/12 09:17:10;;;;;;;14.68;2.30;;;;;;;;;;5028859;28;20144;-82
2022/10/12 09:19:46;;;;;;;13.25;2.50;;;;;;;;;;5029292;28;20136;-80
2022/10/12 09:22:18;;;;;;;9.93;2.03;;;;;;;;;;5030365;28;20061;-82
2022/10/12 09:24:55;;;;;;;13.98;2.80;;;;;;;;;;5029627;28;20119;-79
2022/10/12 09:27:31;;;;;;;15.75;2.35;;;;;;;;;;5031551;28;20055;-80
2022/10/12 09:29:59;;;;;;;9.65;2.70;;;;;;;;;;5031549;28;20124;-82
2022/10/12 09:32:32;;;;;;;14.93;2.47;;;;;;;;;;5031946;28;20151;-81
2022/10/12 09:34:58;;;;;;;9.93;2.70;;;;;;;;;;5030632;28;20060;-81
2022/10/12 09:37:28;;;;;;;7.00;2.20;;;;;;;;;;5030435;28;20100;-80
2022/10/12 09:39:54;;;;;;;11.55;2.40;;;;;;;;;;5030280;28;20417;-80
2022/10/12 09:42:21;;;;;;;13.13;3.05;;;;;;;;;;5013621;28;20053;-80
2022/10/12 09:44:56;;;;;;;9.38;2.38;;;;;;;;;;5030297;28;20460;-80
2022/10/12 09:47:30;;;;;;;10.65;2.55;;;;;;;;;;5030250;28;20052;-80
2022/10/12 09:49:57;;;;;;;14.73;2.70;;;;;;;;;;5029809;28;20294;-80
2022/10/12 09:52:38;;;;;;;12.85;2.60;;;;;;;;;;5030502;28;20543;-80
2022/10/12 09:55:21;;;;;;;12.52;3.00;;;;;;;;;;5030478;28;20056;-81
2022/10/12 09:57:53;;;;;;;7.10;2.08;;;;;;;;;;5012769;28;20069;-79
2022/10/12 10:00:22;;;;;;;12.73;2.70;;;;;;;;;;5030053;28;20055;-80
2022/10/12 10:02:50;;;;;;;11.77;2.72;;;;;;;;;;5030429;28;20084;-79
2022/10/12 10:05:35;;;;;;;13.15;2.50;;;;;;;;;;5029216;28;20128;-79
2022/10/12 10:08:28;;;;;;;11.10;2.60;;;;;;;;;;5030269;28;20046;-79
2022/10/12 10:10:55;;;;;;;8.80;2.30;;;;;;;;;;5026616;28;20057;-79
2022/10/12 10:13:25;;;;;;;8.57;2.90;;;;;;;;;;5030510;28;20088;-79
2022/10/12 10:16:01;;;;;;;8.35;2.65;;;;;;;;;;5029967;28;20512;-80
2022/10/12 10:18:30;;;;;;;12.00;3.10;;;;;;;;;;5030196;28;20136;-79
2022/10/12 10:20:57;;;;;;;10.48;2.85;;;;;;;;;;5029988;28;20045;-80
2022/10/12 10:23:26;;;;;;;9.68;2.42;;;;;;;;;;5038856;28;20124;-81
2022/10/12 10:25:57;;;;;;;11.38;2.60;;;;;;;;;;5035781;28;20115;-80
2022/10/12 10:28:27;;;;;;;10.25;2.83;;;;;;;;;;5026102;28;20132;-79
2022/10/12 10:30:55;;;;;;;10.80;2.67;;;;;;;;;;5011818;28;20045;-80
2022/10/12 10:33:22;;;;;;;7.80;2.53;;;;;;;;;;5029927;28;20045;-79
2022/10/12 10:36:07;;;;;;;8.93;2.72;;;;;;;;;;5012976;28;20053;-80
2022/10/12 10:38:34;;;;;;;;;;;;;;;;;;5031015;28;20053;-81
2022/10/12 10:41:03;;;;;;;8.68;2.75;;;;;;;;;;5013572;28;19932;-81
2022/10/12 10:43:30;;;;;;;10.85;2.60;;;;;;;;;;5031381;28;20146;-81
2022/10/12 10:45:59;;;;;;;8.90;2.60;;;;;;;;;;5029301;28;20051;-81
2022/10/12 10:48:30;;;;;;;11.98;2.58;;;;;;;;;;5029883;28;20052;-80
2022/10/12 10:50:59;;;;;;;11.45;2.40;;;;;;;;;;5049590;28;20038;-81
2022/10/12 10:53:29;;;;;;;8.98;2.88;;;;;;;;;;5053844;28;20060;-81
2022/10/12 10:56:01;;;;;;;9.15;2.60;;;;;;;;;;5040282;28;20073;-81
2022/10/12 10:58:32;;;;;;;10.02;2.85;;;;;;;;;;5028307;28;20052;-79
2022/10/12 11:01:01;;;;;;;9.27;2.60;;;;;;;;;;5028815;28;20519;-80
2022/10/12 11:03:30;;;;;;;8.32;3.13;;;;;;;;;;5028771;28;20937;-81
2022/10/12 11:06:05;;;;;;;8.70;2.70;;;;;;;;;;5029241;28;20060;-81
2022/10/12 11:08:34;;;;;;;10.98;2.92;;;;;;;;;;5028961;28;20054;-80
2022/10/12 11:11:12;;;;;;;8.38;2.42;;;;;;;;;;5028895;28;20516;-80
2022/10/12 11:13:41;;;;;;;9.10;2.65;;;;;;;;;;5027546;28;20049;-80
2022/10/12 11:16:26;;;;;;;9.57;2.90;;;;;;;;;;5028664;28;20137;-79
2022/10/12 11:18:57;;;;;;;10.60;2.70;;;;;;;;;;5028245;28;20145;-80
2022/10/12 11:21:23;;;;;;;7.78;2.20;;;;;;;;;;5029316;28;20045;-79
2022/10/12 11:24:01;;;;;;;8.55;2.65;;;;;;;;;;5029279;28;20057;-81
2022/10/12 11:26:30;;;;;;;7.90;2.60;;;;;;;;;;5028594;28;20087;-81
2022/10/12 11:28:58;;;;;;;12.52;2.90;;;;;;;;;;5028108;28;20056;-81
2022/10/12 11:31:30;;;;;;;13.65;3.20;;;;;;;;;;5011038;28;20052;-80
2022/10/12 11:33:58;;;;;;;8.73;2.58;;;;;;;;;;5029670;28;20053;-80
2022/10/12 11:36:26;;;;;;;9.82;2.78;;;;;;;;;;5034705;28;20049;-81
2022/10/12 11:39:00;;;;;;;9.45;2.55;;;;;;;;;;5033759;28;20045;-81
2022/10/12 11:41:52;;;;;;;9.95;2.70;;;;;;;;;;5032511;28;20386;-79
2022/10/12 11:44:39;;;;;;;;;;;;;;;;;;5018080;28;20068;-80
2022/10/12 11:47:09;;;;;;;11.98;2.88;;;;;;;;;;5031325;28;19928;-80
2022/10/12 11:49:35;;;;;;;7.32;2.70;;;;;;;;;;5031017;28;20060;-81
2022/10/12 11:52:04;;;;;;;7.07;2.33;;;;;;;;;;5031637;28;20049;-80
2022/10/12 11:54:33;;;;;;;8.82;2.38;;;;;;;;;;5031290;28;20045;-78
2022/10/12 11:57:03;;;;;;;13.07;2.80;;;;;;;;;;5031364;28;20053;-80
2022/10/12 11:59:33;;;;;;;8.45;2.25;;;;;;;;;;5030858;28;20055;-82
2022/10/12 12:02:02;;;;;;;8.30;2.10;;;;;;;;;;5031488;28;20136;-79
2022/10/12 12:04:29;;;;;;;11.70;3.03;;;;;;;;;;5031149;28;20060;-79
2022/10/12 12:07:28;;;;;;;12.73;2.65;;;;;;;;;;5032256;28;20240;-79
2022/10/12 12:09:54;;;;;;;7.88;2.85;;;;;;;;;;5031745;28;20049;-80
2022/10/12 12:12:24;;;;;;;8.35;2.47;;;;;;;;;;5032949;28;20049;-79
2022/10/12 12:14:53;;;;;;;11.13;2.80;;;;;;;;;;5031437;28;20429;-80
2022/10/12 12:17:23;;;;;;;7.50;2.58;;;;;;;;;;5030658;28;20051;-80
2022/10/12 12:19:57;;;;;;;9.57;2.55;;;;;;;;;;5032417;28;20056;-80
2022/10/12 12:22:25;;;;;;;7.88;2.50;;;;;;;;;;5036213;28;20046;-80
2022/10/12 12:24:59;;;;;;;9.93;2.53;;;;;;;;;;5039293;28;20068;-80
2022/10/12 12:27:39;;;;;;;9.05;2.80;;;;;;;;;;5038341;28;20053;-81
2022/10/12 12:30:18;;;;;;;9.25;2.55;;;;;;;;;;5037717;28;20060;-81
2022/10/12 12:32:49;;;;;;;6.95;2.40;;;;;;;;;;5037379;28;20323;-80
2022/10/12 12:35:21;;;;;;;10.48;2.47;;;;;;;;;;5035400;28;20060;-80
2022/10/12 12:37:48;;;;;;;8.95;2.60;;;;;;;;;;5036382;28;20053;-80
2022/10/12 12:40:21;;;;;;;8.00;2.17;;;;;;;;;;5019092;28;20045;-80
2022/10/12 12:42:48;;;;;;;7.35;2.28;;;;;;;;;;5018434;28;20064;-80
2022/10/12 12:45:31;;;;;;;7.88;2.22;;;;;;;;;;5033039;28;20140;-81
2022/10/12 12:47:57;;;;;;;12.65;2.63;;;;;;;;;;5032170;28;20060;-80
2022/10/12 12:50:26;;;;;;;10.20;2.50;;;;;;;;;;5031287;28;20053;-78
2022/10/12 12:52:58;;;;;;;14.80;3.03;;;;;;;;;;5032979;28;20057;-79
2022/10/12 12:55:27;;;;;;;10.85;2.50;;;;;;;;;;5014741;28;20457;-82
2022/10/12 12:58:00;;;;;;;9.07;2.75;;;;;;;;;;5031830;28;20080;-80
2022/10/12 13:00:35;;;;;;;8.65;2.33;;;;;;;;;;5031893;28;20387;-79
2022/10/12 13:03:18;;;;;;;12.82;2.70;;;;;;;;;;5030896;28;20042;-79
2022/10/12 13:05:48;;;;;;;9.32;2.58;;;;;;;;;;5031197;28;20053;-81
2022/10/12 13:08:20;;;;;;;9.63;2.42;;;;;;;;;;5036714;28;20052;-80
2022/10/12 13:11:02;;;;;;;7.47;2.55;;;;;;;;;;5038489;28;20053;-81
2022/10/12 13:13:32;;;;;;;9.13;2.60;;;;;;;;;;5036517;28;20064;-81
2022/10/12 13:16:03;;;;;;;;;;;;;;;;;;5034091;28;20137;-80
2022/10/12 13:18:30;;;;;;;12.70;2.85;;;;;;;;;;5030446;28;19936;-79
2022/10/12 13:21:25;;;;;;;9.45;2.65;;;;;;;;;;5031301;28;20056;-82
2022/10/12 13:24:06;;;;;;;9.57;2.58;;;;;;;;;;5029922;28;20130;-80
2022/10/12 13:26:34;;;;;;;6.38;2.40;;;;;;;;;;5029761;28;20053;-80
2022/10/12 13:29:01;;;;;;;10.93;2.60;;;;;;;;;;5031122;28;20045;-80
2022/10/12 13:31:39;;;;;;;6.97;2.63;;;;;;;;;;5030561;28;20045;-81
2022/10/12 13:34:16;;;;;;;10.10;3.10;;;;;;;;;;5031088;28;20046;-79
2022/10/12 13:36:49;;;;;;;6.85;2.17;;;;;;;;;;5030655;28;20171;-79
2022/10/12 13:39:17;;;;;;;8.48;3.28;;;;;;;;;;5030992;28;20049;-80
2022/10/12 13:41:45;;;;;;;10.55;3.40;;;;;;;;;;5030320;28;20052;-79
2022/10/12 13:44:18;;;;;;;10.50;2.90;;;;;;;;;;5032482;28;20390;-80
2022/10/12 13:46:46;;;;;;;10.65;2.90;;;;;;;;;;5015188;28;20131;-81
2022/10/12 13:49:15;;;;;;;8.60;2.60;;;;;;;;;;5013315;28;20405;-80
2022/10/12 13:51:43;;;;;;;15.15;3.15;;;;;;;;;;5030220;28;20060;-80
2022/10/12 13:54:32;;;;;;;9.55;2.58;;;;;;;;;;5020910;28;20050;-80
2022/10/12 13:57:03;;;;;;;11.25;2.95;;;;;;;;;;5023704;28;20042;-80
2022/10/12 13:59:32;;;;;;;12.75;3.72;;;;;;;;;;5022367;28;20470;-81
2022/10/12 14:02:00;;;;;;;14.88;2.97;;;;;;;;;;5021387;28;20041;-82
2022/10/12 14:04:28;;;;;;;12.02;3.42;;;;;;;;;;5023647;28;20041;-81
2022/10/12 14:06:57;;;;;;;9.40;2.95;;;;;;;;;;5025883;28;20042;-79
2022/10/12 14:09:24;;;;;;;15.35;3.15;;;;;;;;;;5022732;28;20038;-78
2022/10/12 14:11:52;;;;;;;9.52;2.65;;;;;;;;;;5041957;28;20034;-81
2022/10/12 14:14:18;;;;;;;9.93;2.50;;;;;;;;;;5028257;28;20029;-80
2022/10/12 14:16:45;;;;;;;10.85;2.75;;;;;;;;;;5041040;28;20438;-80
2022/10/12 14:19:30;;;;;;;9.27;2.33;;;;;;;;;;5025385;28;20057;-81
2022/10/12 14:21:57;;;;;;;;;;;;;;;;;;5004394;28;20050;-80
2022/10/12 14:24:23;;;;;;;;;;;;;;;;;;5025287;28;20458;-80
2022/10/12 14:26:54;;;;;;;7.88;2.35;;;;;;;;;;5021996;28;19941;-79
2022/10/12 14:29:25;;;;;;;7.93;2.65;;;;;;;;;;5010124;28;20046;-81
2022/10/12 14:31:53;;;;;;;10.60;2.75;;;;;;;;;;5027640;28;20068;-81
2022/10/12 14:34:25;;;;;;;16.63;2.55;;;;;;;;;;5033522;28;20196;-80
2022/10/12 14:37:07;;;;;;;12.30;2.72;;;;;;;;;;5031425;28;20063;-79
2022/10/12 14:39:34;;;;;;;17.23;3.20;;;;;;;;;;5022441;28;20475;-80
2022/10/12 14:42:17;;;;;;;9.88;2.65;;;;;;;;;;5003802;28;20050;-80
2022/10/12 14:44:44;;;;;;;11.05;2.70;;;;;;;;;;5022853;28;20068;-80
2022/10/12 14:47:20;;;;;;;13.27;2.63;;;;;;;;;;5011477;28;20053;-79